Calico Ridge, Nevada
Current Conditions -  °F | °C
As of 10:55 PM on Monday 20 Oct 2014 (Local Time) from KBVU Reporting Station
Clear Clear  
Wind Chill: 75°   Ceiling: Unl
Heat Index: 75°   Visibility: 10mi
Dew Point: 45°   Wind: 3mph
Humidity: 34%   Direction: 330°NNW
Pressure: 29.88"   Gusts: NA
Location:  36.0603°N, 114.956°W
Report Text: KBVU 210555Z AUTO 33003KT 10SM CLR 24/07 A2988 RMK AO2
Loading
Personal Weather Stations






























Interactive Weather Map
Tropical Storm Tracking
New forecast layout! Learn more

10-Day Weather Forecast

Advertisements
Track Severe Weather on mobile